Aeroporto :
LOGIN :

Iscrizione | Disclaimer

   EN    FR    IT 

 










Sommario :    VFR   VFR Marginale   IFR   IFR Intensivo   IFR Molto Intensivo
Visibilità : 
Base nubi : 
>= 8 km
>= 3000ft
5 / 8 km
1000 / 3000 ft
1500m / 5 km
500 / 1000 ft
800 / 1500m
200 / 500 ft
< 800m
< 200 ft
Simboli :   Temporali  Nebbia  Neve Forte  Precipitazioni Forti  Vento > 20 kt
SIGMETs :   Varie  Temporali  Ghiacco  Turbolenza  Onda orograficha  Ceneri Vulcaniche






- Altitudine del aeroporto : 255 ft


ENGC - Gullfaks C oil platform

ULTIMO METAR :
  • 240520Z 28034KT 9999 VCSH FEW020TCU BKN025 BKN080 06/00 Q1007 W06/S6

METARs OBSOLETI :
  • 240350Z 29029KT 9999 VCSH FEW020TCU BKN025 05/02 Q1008 W06/S6
  • 240250Z 28026KT 9999 FEW030 06/00 Q1008 W06/S5

TAF TAF ENGC
Valido dal 24 a 03 ore il 25 a 03 ore UTC


2403/2503 29030KT 9999 -SHRA FEW015TCU SCT030
TEMPO 2403/2503 SHRA SCT012 BKN018CB
BECMG 2423/2501 23025KT



MetMap, La meteo Aeronautica in un colpo d'occhio ! - Copyright ORBIFLY Dicembre 2007 - Disclaimer

ORBIFLY MET'MAP TEAM :

Programmazione e sviluppo : Alexandra Zaïnal
Concezione : Baudouin d'Aumeries
Aiuto per la programmazione : Marc-Olivier Méhu
Supporto tecnico e logistico : Manuel Goepfert
Aiuto per la traduzione : Arnaldo La Scala

Contatto : metmap@orbifly.com




FONTI E CREDITI :

   NOAA